Time;durP1;ratioP1;P1;durP2;ratioP2;P2;SDS_P1;SDS_P2;PMS_P1;PMS_P2;Temp;Humidity;BMP_temperature;BMP_pressure;BME280_temperature;BME280_humidity;BME280_pressure;Samples;Min_cycle;Max_cycle;Signal;HPM_P1;HPM_P2
2023/03/13 00:02:28;;;;;;;;;;;;;;;;;;4998262;28;20292;-80
2023/03/13 00:05:14;;;;;;;;;;;;;;;;;;5003316;28;20387;-79
2023/03/13 00:08:01;;;;;;;;;;;;;;;;;;5005402;28;19929;-79
2023/03/13 00:10:47;;;;;;;;;;;;;;;;;;5004923;28;20285;-80
2023/03/13 00:13:33;;;;;;;;;;;;;;;;;;5005970;28;19928;-80
2023/03/13 00:16:20;;;;;;;;;;;;;;;;;;5005996;28;19926;-80
2023/03/13 00:19:06;;;;;;;;;;;;;;;;;;5005768;28;20417;-79
2023/03/13 00:21:53;;;;;;;;;;;;;;;;;;5007328;28;19917;-80
2023/03/13 00:24:39;;;;;;;;;;;;;;;;;;4997223;28;19917;-79
2023/03/13 00:27:26;;;;;;;;;;;;;;;;;;5005659;28;19940;-78
2023/03/13 00:30:12;;;;;;;;;;;;;;;;;;5000986;28;20281;-78
2023/03/13 00:32:59;;;;;;;;;;;;;;;;;;5005622;28;19921;-80
2023/03/13 00:35:45;;;;;;;;;;;;;;;;;;5006051;28;19914;-79
2023/03/13 00:38:32;;;;;;;;;;;;;;;;;;4989928;28;19925;-79
2023/03/13 00:41:18;;;;;;;;;;;;;;;;;;5005596;28;19924;-79
2023/03/13 00:44:05;;;;;;;;;;;;;;;;;;5005636;28;19921;-79
2023/03/13 00:46:51;;;;;;;;;;;;;;;;;;5006020;28;19928;-79
2023/03/13 00:49:38;;;;;;;;;;;;;;;;;;4997129;28;20311;-79
2023/03/13 00:52:26;;;;;;;;;;;;;;;;;;5002193;28;19921;-79
2023/03/13 00:55:13;;;;;;;;;;;;;;;;;;5005212;28;19913;-79
2023/03/13 00:58:00;;;;;;;;;;;;;;;;;;5006714;28;19926;-79
2023/03/13 01:00:46;;;;;;;;;;;;;;;;;;5005140;28;20288;-79
2023/03/13 01:03:33;;;;;;;;;;;;;;;;;;5003522;28;19953;-83
2023/03/13 01:06:19;;;;;;;;;;;;;;;;;;5005133;28;20369;-80
2023/03/13 01:09:06;;;;;;;;;;;;;;;;;;5006866;28;19926;-76
2023/03/13 01:11:52;;;;;;;;;;;;;;;;;;5007090;28;19940;-78
2023/03/13 01:14:39;;;;;;;;;;;;;;;;;;5005799;28;19921;-79
2023/03/13 01:17:25;;;;;;;;;;;;;;;;;;5003503;28;19918;-80
2023/03/13 01:20:12;;;;;;;;;;;;;;;;;;5001311;28;19921;-78
2023/03/13 01:22:58;;;;;;;;;;;;;;;;;;5000273;28;19925;-79
2023/03/13 01:25:45;;;;;;;;;;;;;;;;;;5000354;28;20365;-78
2023/03/13 01:28:31;;;;;;;;;;;;;;;;;;5004572;28;19931;-78
2023/03/13 01:31:18;;;;;;;;;;;;;;;;;;5012202;28;19925;-79
2023/03/13 01:34:04;;;;;;;;;;;;;;;;;;5005135;28;20399;-80
2023/03/13 01:36:51;;;;;;;;;;;;;;;;;;4998316;28;19917;-79
2023/03/13 01:39:37;;;;;;;;;;;;;;;;;;5004253;28;19924;-78
2023/03/13 01:42:24;;;;;;;;;;;;;;;;;;5004155;28;20292;-79
2023/03/13 01:45:10;;;;;;;;;;;;;;;;;;5007831;28;19913;-78
2023/03/13 01:47:57;;;;;;;;;;;;;;;;;;5004882;28;19932;-79
2023/03/13 01:50:43;;;;;;;;;;;;;;;;;;5002159;28;19925;-79
2023/03/13 01:53:30;;;;;;;;;;;;;;;;;;5005151;28;19918;-79
2023/03/13 01:56:16;;;;;;;;;;;;;;;;;;4999052;28;19960;-79
2023/03/13 01:59:02;;;;;;;;;;;;;;;;;;5002333;28;19922;-79
2023/03/13 02:01:49;;;;;;;;;;;;;;;;;;5002881;28;20412;-79
2023/03/13 02:04:35;;;;;;;;;;;;;;;;;;5004837;28;19928;-79
2023/03/13 02:07:22;;;;;;;;;;;;;;;;;;5006428;28;19921;-80
2023/03/13 02:10:08;;;;;;;;;;;;;;;;;;5005330;28;19941;-79
2023/03/13 02:12:55;;;;;;;;;;;;;;;;;;5003958;28;19917;-79
2023/03/13 02:15:41;;;;;;;;;;;;;;;;;;5004706;28;19924;-80
2023/03/13 02:18:28;;;;;;;;;;;;;;;;;;4992275;28;19928;-81
2023/03/13 02:21:14;;;;;;;;;;;;;;;;;;5000644;28;20366;-79
2023/03/13 02:24:01;;;;;;;;;;;;;;;;;;5004882;28;19928;-80
2023/03/13 02:26:47;;;;;;;;;;;;;;;;;;5005210;28;20117;-80
2023/03/13 02:29:34;;;;;;;;;;;;;;;;;;5001280;28;19926;-81
2023/03/13 02:32:20;;;;;;;;;;;;;;;;;;5004709;28;19920;-80
2023/03/13 02:35:06;;;;;;;;;;;;;;;;;;5008289;28;20377;-78
2023/03/13 02:37:53;;;;;;;;;;;;;;;;;;5009204;28;19936;-80
2023/03/13 02:40:39;;;;;;;;;;;;;;;;;;5005111;28;20291;-80
2023/03/13 02:43:26;;;;;;;;;;;;;;;;;;5006278;28;22457;-79
2023/03/13 02:46:12;;;;;;;;;;;;;;;;;;5006693;28;19925;-79
2023/03/13 02:48:59;;;;;;;;;;;;;;;;;;5009549;28;19932;-80
2023/03/13 02:51:45;;;;;;;;;;;;;;;;;;5008215;28;19918;-80
2023/03/13 02:54:32;;;;;;;;;;;;;;;;;;5000278;28;19918;-79
2023/03/13 02:57:18;;;;;;;;;;;;;;;;;;5007537;28;20032;-77
2023/03/13 03:00:05;;;;;;;;;;;;;;;;;;5007185;28;19924;-78
2023/03/13 03:02:52;;;;;;;;;;;;;;;;;;5006229;28;20397;-78
2023/03/13 03:05:39;;;;;;;;;;;;;;;;;;4997800;28;19918;-78
2023/03/13 03:08:25;;;;;;;;;;;;;;;;;;4996081;28;19928;-78
2023/03/13 03:11:12;;;;;;;;;;;;;;;;;;5001877;28;19947;-77
2023/03/13 03:13:58;;;;;;;;;;;;;;;;;;5007389;28;19924;-78
2023/03/13 03:16:45;;;;;;;;;;;;;;;;;;5007802;28;20486;-78
2023/03/13 03:19:31;;;;;;;;;;;;;;;;;;5006421;28;19921;-78
2023/03/13 03:22:18;;;;;;;;;;;;;;;;;;5004642;28;19917;-77
2023/03/13 03:25:05;;;;;;;;;;;;;;;;;;5008643;28;19922;-78
2023/03/13 03:27:51;;;;;;;;;;;;;;;;;;5008789;28;19952;-77
2023/03/13 03:30:38;;;;;;;;;;;;;;;;;;4999007;28;19920;-77
2023/03/13 03:33:24;;;;;;;;;;;;;;;;;;5000029;28;19924;-77
2023/03/13 03:36:11;;;;;;;;;;;;;;;;;;4997664;28;19917;-77
2023/03/13 03:38:58;;;;;;;;;;;;;;;;;;5007817;28;19913;-78
2023/03/13 03:41:44;;;;;;;;;;;;;;;;;;5006231;28;20391;-78
2023/03/13 03:44:30;;;;;;;;;;;;;;;;;;5006212;28;19929;-78
2023/03/13 03:47:17;;;;;;;;;;;;;;;;;;5002203;28;20524;-78
2023/03/13 03:50:03;;;;;;;;;;;;;;;;;;5003604;28;19925;-79
2023/03/13 03:52:50;;;;;;;;;;;;;;;;;;5000744;28;19917;-78
2023/03/13 03:55:36;;;;;;;;;;;;;;;;;;4999976;28;19917;-78
2023/03/13 03:58:23;;;;;;;;;;;;;;;;;;5007707;28;19914;-78
2023/03/13 04:01:09;;;;;;;;;;;;;;;;;;5006954;28;19913;-77
2023/03/13 04:03:56;;;;;;;;;;;;;;;;;;4957711;28;19930;-78
2023/03/13 04:06:42;;;;;;;;;;;;;;;;;;4967614;28;19969;-79
2023/03/13 04:09:29;;;;;;;;;;;;;;;;;;4966333;28;20544;-79
2023/03/13 04:12:15;;;;;;;;;;;;;;;;;;4969237;28;19956;-79
2023/03/13 04:15:02;;;;;;;;;;;;;;;;;;4967342;28;20509;-78
2023/03/13 04:17:48;;;;;;;;;;;;;;;;;;4966594;28;20539;-78
2023/03/13 04:20:35;;;;;;;;;;;;;;;;;;4964276;28;19929;-78
2023/03/13 04:23:21;;;;;;;;;;;;;;;;;;4959665;28;19926;-78
2023/03/13 04:26:08;;;;;;;;;;;;;;;;;;4966658;28;19930;-77
2023/03/13 04:28:54;;;;;;;;;;;;;;;;;;4963197;28;19937;-78
2023/03/13 04:31:41;;;;;;;;;;;;;;;;;;4962967;28;19926;-78
2023/03/13 04:34:27;;;;;;;;;;;;;;;;;;4965940;28;20374;-76
2023/03/13 04:37:14;;;;;;;;;;;;;;;;;;4976159;28;20301;-78
2023/03/13 04:40:00;;;;;;;;;;;;;;;;;;4982154;28;19921;-78
2023/03/13 04:42:47;;;;;;;;;;;;;;;;;;4977606;28;19918;-77
2023/03/13 04:45:33;;;;;;;;;;;;;;;;;;4963052;28;19929;-78
2023/03/13 04:48:19;;;;;;;;;;;;;;;;;;4963672;28;19930;-77
2023/03/13 04:51:06;;;;;;;;;;;;;;;;;;4966650;28;20479;-77
2023/03/13 04:53:52;;;;;;;;;;;;;;;;;;4966678;28;19918;-78
2023/03/13 04:56:39;;;;;;;;;;;;;;;;;;4963155;28;20489;-76
2023/03/13 04:59:25;;;;;;;;;;;;;;;;;;4965380;28;19918;-77
2023/03/13 05:02:12;;;;;;;;;;;;;;;;;;4980758;28;19930;-76
2023/03/13 05:04:58;;;;;;;;;;;;;;;;;;5004900;28;19927;-77
2023/03/13 05:07:45;;;;;;;;;;;;;;;;;;5003754;28;19921;-78
2023/03/13 05:10:31;;;;;;;;;;;;;;;;;;5001581;28;19914;-77
2023/03/13 05:13:18;;;;;;;;;;;;;;;;;;5005662;28;20393;-77
2023/03/13 05:16:04;;;;;;;;;;;;;;;;;;5002603;28;19925;-77
2023/03/13 05:18:51;;;;;;;;;;;;;;;;;;5005037;28;20392;-77
2023/03/13 05:21:37;;;;;;;;;;;;;;;;;;5003464;28;19929;-77
2023/03/13 05:24:24;;;;;;;;;;;;;;;;;;4993741;28;19918;-78
2023/03/13 05:27:10;;;;;;;;;;;;;;;;;;4999602;28;19924;-78
2023/03/13 05:29:57;;;;;;;;;;;;;;;;;;4999854;28;19931;-78
2023/03/13 05:32:43;;;;;;;;;;;;;;;;;;5003641;28;19924;-77
2023/03/13 05:35:30;;;;;;;;;;;;;;;;;;4994711;28;19917;-77
2023/03/13 05:38:17;;;;;;;;;;;;;;;;;;5001346;28;19921;-77
2023/03/13 05:41:03;;;;;;;;;;;;;;;;;;5004680;28;19932;-77
2023/03/13 05:43:50;;;;;;;;;;;;;;;;;;5002337;28;19924;-77
2023/03/13 05:46:36;;;;;;;;;;;;;;;;;;5001729;28;19917;-77
2023/03/13 05:49:23;;;;;;;;;;;;;;;;;;4998361;28;20448;-77
2023/03/13 05:52:09;;;;;;;;;;;;;;;;;;5003310;28;19924;-77
2023/03/13 05:54:56;;;;;;;;;;;;;;;;;;5000801;28;20028;-78
2023/03/13 05:57:42;;;;;;;;;;;;;;;;;;4999890;28;19917;-79
2023/03/13 06:00:28;;;;;;;;;;;;;;;;;;5002604;28;20384;-79
2023/03/13 06:03:15;;;;;;;;;;;;;;;;;;5002270;28;19926;-78
2023/03/13 06:06:01;;;;;;;;;;;;;;;;;;4998681;28;19918;-79
2023/03/13 06:08:48;;;;;;;;;;;;;;;;;;5001478;28;20389;-79
2023/03/13 06:11:34;;;;;;;;;;;;;;;;;;5004750;28;19924;-79
2023/03/13 06:14:21;;;;;;;;;;;;;;;;;;5001129;28;19921;-79
2023/03/13 06:17:07;;;;;;;;;;;;;;;;;;5004306;28;19913;-79
2023/03/13 06:19:54;;;;;;;;;;;;;;;;;;4999619;28;20288;-79
2023/03/13 06:22:40;;;;;;;;;;;;;;;;;;5001960;28;19923;-79
2023/03/13 06:25:27;;;;;;;;;;;;;;;;;;4999310;28;19926;-79
2023/03/13 06:28:13;;;;;;;;;;;;;;;;;;4999651;28;19945;-78
2023/03/13 06:31:00;;;;;;;;;;;;;;;;;;5005523;28;19925;-78
2023/03/13 06:33:46;;;;;;;;;;;;;;;;;;5005230;28;19924;-78
2023/03/13 06:36:33;;;;;;;;;;;;;;;;;;5000400;28;19926;-78
2023/03/13 06:39:19;;;;;;;;;;;;;;;;;;4999528;28;19917;-78
2023/03/13 06:42:06;;;;;;;;;;;;;;;;;;5004873;28;19921;-78
2023/03/13 06:44:52;;;;;;;;;;;;;;;;;;4988729;28;20365;-79
2023/03/13 06:47:39;;;;;;;;;;;;;;;;;;4998475;28;19928;-79
2023/03/13 06:50:25;;;;;;;;;;;;;;;;;;5003158;28;19921;-79
2023/03/13 06:53:11;;;;;;;;;;;;;;;;;;5000439;28;20467;-79
2023/03/13 06:55:58;;;;;;;;;;;;;;;;;;4997360;28;19921;-79
2023/03/13 06:58:44;;;;;;;;;;;;;;;;;;5000768;28;19918;-79
2023/03/13 07:01:31;;;;;;;;;;;;;;;;;;5003719;28;19921;-79
2023/03/13 07:04:18;;;;;;;;;;;;;;;;;;4997895;28;19940;-79
2023/03/13 07:07:05;;;;;;;;;;;;;;;;;;5003353;28;19917;-79
2023/03/13 07:09:52;;;;;;;;;;;;;;;;;;4996937;28;19921;-79
2023/03/13 07:12:38;;;;;;;;;;;;;;;;;;4994646;28;20301;-79
2023/03/13 07:15:25;;;;;;;;;;;;;;;;;;4992128;28;19928;-79
2023/03/13 07:18:11;;;;;;;;;;;;;;;;;;5000086;28;19921;-79
2023/03/13 07:20:58;;;;;;;;;;;;;;;;;;5001899;28;19921;-79
2023/03/13 07:23:44;;;;;;;;;;;;;;;;;;4998510;28;19922;-79
2023/03/13 07:26:30;;;;;;;;;;;;;;;;;;5003883;28;19918;-81
2023/03/13 07:29:17;;;;;;;;;;;;;;;;;;5015824;28;19924;-81
2023/03/13 07:32:03;;;;;;;;;;;;;;;;;;5004351;28;19914;-81
2023/03/13 07:34:50;;;;;;;;;;;;;;;;;;5004318;28;19917;-80
2023/03/13 07:37:36;;;;;;;;;;;;;;;;;;4997518;28;19914;-80
2023/03/13 07:40:23;;;;;;;;;;;;;;;;;;4999546;28;19964;-80
2023/03/13 07:43:09;;;;;;;;;;;;;;;;;;5006933;28;20289;-80
2023/03/13 07:45:56;;;;;;;;;;;;;;;;;;5008012;28;20384;-80
2023/03/13 07:48:42;;;;;;;;;;;;;;;;;;5005981;28;19951;-80
2023/03/13 07:51:29;;;;;;;;;;;;;;;;;;5003062;28;20377;-80
2023/03/13 07:54:15;;;;;;;;;;;;;;;;;;5005844;28;19917;-80
2023/03/13 07:57:02;;;;;;;;;;;;;;;;;;5011450;28;19918;-80
2023/03/13 07:59:48;;;;;;;;;;;;;;;;;;5005794;28;20212;-80
2023/03/13 08:02:35;;;;;;;;;;;;;;;;;;5003457;28;19938;-80
2023/03/13 08:05:21;;;;;;;;;;;;;;;;;;4996539;28;19917;-80
2023/03/13 08:08:08;;;;;;;;;;;;;;;;;;4988722;28;19933;-80
2023/03/13 08:10:54;;;;;;;;;;;;;;;;;;5009150;28;20388;-80
2023/03/13 08:13:41;;;;;;;;;;;;;;;;;;5005204;28;19985;-80
2023/03/13 08:16:27;;;;;;;;;;;;;;;;;;4991014;28;19926;-79
2023/03/13 08:19:14;;;;;;;;;;;;;;;;;;5002957;28;20395;-79
2023/03/13 08:22:00;;;;;;;;;;;;;;;;;;5005482;28;20426;-80
2023/03/13 08:24:47;;;;;;;;;;;;;;;;;;5003541;28;19928;-81
2023/03/13 08:27:33;;;;;;;;;;;;;;;;;;5004109;28;19929;-80
2023/03/13 08:30:20;;;;;;;;;;;;;;;;;;5006046;28;19917;-79
2023/03/13 08:33:06;;;;;;;;;;;;;;;;;;5005916;28;19925;-80
2023/03/13 08:35:53;;;;;;;;;;;;;;;;;;5001294;28;19917;-80
2023/03/13 08:38:41;;;;;;;;;;;;;;;;;;5004122;28;19924;-81
2023/03/13 08:41:27;;;;;;;;;;;;;;;;;;5005252;28;19932;-80
2023/03/13 08:44:14;;;;;;;;;;;;;;;;;;4997244;28;19943;-81
2023/03/13 08:47:00;;;;;;;;;;;;;;;;;;5004991;28;19918;-80
2023/03/13 08:49:47;;;;;;;;;;;;;;;;;;5003319;28;19926;-81
2023/03/13 08:52:33;;;;;;;;;;;;;;;;;;5002916;28;19927;-81
2023/03/13 08:55:20;;;;;;;;;;;;;;;;;;5004349;28;19924;-80
2023/03/13 08:58:06;;;;;;;;;;;;;;;;;;5004135;28;20436;-80
2023/03/13 09:00:53;;;;;;;;;;;;;;;;;;5002197;28;19924;-80
2023/03/13 09:03:39;;;;;;;;;;;;;;;;;;5004383;28;19933;-81
2023/03/13 09:06:26;;;;;;;;;;;;;;;;;;5002002;28;19917;-80
2023/03/13 09:09:13;;;;;;;;;;;;;;;;;;5002289;28;20412;-79
2023/03/13 09:11:59;;;;;;;;;;;;;;;;;;5006218;28;19926;-81
2023/03/13 09:14:46;;;;;;;;;;;;;;;;;;5004007;28;19928;-80
2023/03/13 09:17:32;;;;;;;;;;;;;;;;;;5003204;28;19921;-79
2023/03/13 09:20:19;;;;;;;;;;;;;;;;;;5003316;28;19932;-79
2023/03/13 09:23:05;;;;;;;;;;;;;;;;;;5004848;28;20312;-81
2023/03/13 09:25:52;;;;;;;;;;;;;;;;;;5001359;28;19918;-81
2023/03/13 09:28:40;;;;;;;;;;;;;;;;;;5003341;28;19925;-80
2023/03/13 09:31:27;;;;;;;;;;;;;;;;;;5002879;28;19932;-81
2023/03/13 09:34:13;;;;;;;;;;;;;;;;;;5002618;28;19930;-80
2023/03/13 09:37:00;;;;;;;;;;;;;;;;;;4988836;28;19928;-81
2023/03/13 09:39:46;;;;;;;;;;;;;;;;;;5000352;28;19914;-80
2023/03/13 09:42:33;;;;;;;;;;;;;;;;;;5002751;28;19922;-81
2023/03/13 09:45:19;;;;;;;;;;;;;;;;;;5002886;28;19925;-80
2023/03/13 09:48:06;;;;;;;;;;;;;;;;;;5000919;28;19933;-81
2023/03/13 09:50:52;;;;;;;;;;;;;;;;;;5001590;28;20385;-80
2023/03/13 09:53:39;;;;;;;;;;;;;;;;;;5002354;28;19920;-80
2023/03/13 09:56:25;;;;;;;;;;;;;;;;;;5002690;28;19917;-80
2023/03/13 09:59:12;;;;;;;;;;;;;;;;;;4999974;28;19951;-79
2023/03/13 10:01:58;;;;;;;;;;;;;;;;;;5002389;28;19951;-79
2023/03/13 10:04:45;;;;;;;;;;;;;;;;;;5004166;28;20011;-80
2023/03/13 10:07:31;;;;;;;;;;;;;;;;;;4998942;28;19926;-80
2023/03/13 10:10:18;;;;;;;;;;;;;;;;;;5003932;28;19928;-79
2023/03/13 10:13:04;;;;;;;;;;;;;;;;;;5003033;28;19917;-79
2023/03/13 10:15:50;;;;;;;;;;;;;;;;;;4999689;28;19917;-80
2023/03/13 10:18:37;;;;;;;;;;;;;;;;;;4999724;28;19921;-79
2023/03/13 10:21:23;;;;;;;;;;;;;;;;;;5000710;28;19922;-79
2023/03/13 10:24:10;;;;;;;;;;;;;;;;;;5002317;28;19921;-79
2023/03/13 10:26:56;;;;;;;;;;;;;;;;;;4999684;28;19921;-81
2023/03/13 10:29:43;;;;;;;;;;;;;;;;;;5002607;28;19928;-81
2023/03/13 10:32:29;;;;;;;;;;;;;;;;;;5002230;28;19922;-81
2023/03/13 10:35:16;;;;;;;;;;;;;;;;;;5003635;28;20274;-81
2023/03/13 10:38:02;;;;;;;;;;;;;;;;;;5001917;28;19939;-81
2023/03/13 10:40:49;;;;;;;;;;;;;;;;;;5002600;28;19928;-81
2023/03/13 10:43:35;;;;;;;;;;;;;;;;;;5001688;28;19914;-81
2023/03/13 10:46:22;;;;;;;;;;;;;;;;;;5003367;28;19925;-81
2023/03/13 10:49:08;;;;;;;;;;;;;;;;;;4998685;28;19929;-79
2023/03/13 10:51:55;;;;;;;;;;;;;;;;;;5001329;28;19917;-80
2023/03/13 10:54:41;;;;;;;;;;;;;;;;;;5003619;28;19924;-80
2023/03/13 10:57:28;;;;;;;;;;;;;;;;;;5006452;28;19959;-80
2023/03/13 11:00:14;;;;;;;;;;;;;;;;;;5003916;28;19924;-80
2023/03/13 11:03:01;;;;;;;;;;;;;;;;;;5005531;28;19948;-80
2023/03/13 11:05:48;;;;;;;;;;;;;;;;;;5008007;28;19924;-80
2023/03/13 11:08:34;;;;;;;;;;;;;;;;;;5003682;28;19926;-80
2023/03/13 11:11:21;;;;;;;;;;;;;;;;;;5009845;28;19917;-79
2023/03/13 11:14:07;;;;;;;;;;;;;;;;;;5009549;28;19932;-78
2023/03/13 11:16:54;;;;;;;;;;;;;;;;;;5007200;28;19930;-80
2023/03/13 11:19:42;;;;;;;;;;;;;;;;;;5003213;28;19928;-80
2023/03/13 11:22:29;;;;;;;;;;;;;;;;;;5001996;28;19922;-80
2023/03/13 11:25:15;;;;;;;;;;;;;;;;;;5003781;28;19921;-79
2023/03/13 11:28:02;;;;;;;;;;;;;;;;;;5003324;28;20285;-80
2023/03/13 11:30:49;;;;;;;;;;;;;;;;;;5003096;28;19932;-80
2023/03/13 11:33:35;;;;;;;;;;;;;;;;;;5002320;28;20854;-80
2023/03/13 11:36:24;;;;;;;;;;;;;;;;;;5004454;28;19921;-80
2023/03/13 11:39:10;;;;;;;;;;;;;;;;;;5002879;28;19917;-80
2023/03/13 11:41:57;;;;;;;;;;;;;;;;;;5004237;28;19924;-80
2023/03/13 11:44:43;;;;;;;;;;;;;;;;;;5002876;28;19917;-89
2023/03/13 11:47:30;;;;;;;;;;;;;;;;;;5005920;28;19922;-80
2023/03/13 11:50:16;;;;;;;;;;;;;;;;;;5001688;28;19926;-80
2023/03/13 11:53:03;;;;;;;;;;;;;;;;;;5006441;28;20424;-82
2023/03/13 11:55:49;;;;;;;;;;;;;;;;;;5003592;28;19922;-80
2023/03/13 11:58:36;;;;;;;;;;;;;;;;;;4999410;28;20280;-80
2023/03/13 12:01:22;;;;;;;;;;;;;;;;;;5003064;28;19928;-80
2023/03/13 12:04:09;;;;;;;;;;;;;;;;;;5000237;28;19930;-79
2023/03/13 12:06:55;;;;;;;;;;;;;;;;;;5004710;28;19917;-80
2023/03/13 12:09:42;;;;;;;;;;;;;;;;;;5003085;28;19926;-80
2023/03/13 12:12:28;;;;;;;;;;;;;;;;;;5004307;28;19917;-80
2023/03/13 12:15:15;;;;;;;;;;;;;;;;;;5003811;28;19943;-80
2023/03/13 12:18:01;;;;;;;;;;;;;;;;;;5004252;28;19928;-80
2023/03/13 12:20:48;;;;;;;;;;;;;;;;;;5004652;28;19924;-81
2023/03/13 12:23:35;;;;;;;;;;;;;;;;;;5003456;28;19917;-80
2023/03/13 12:26:21;;;;;;;;;;;;;;;;;;5003693;28;19917;-83
2023/03/13 12:29:08;;;;;;;;;;;;;;;;;;5005247;28;19932;-80
2023/03/13 12:31:54;;;;;;;;;;;;;;;;;;5004345;28;19921;-80
2023/03/13 12:34:41;;;;;;;;;;;;;;;;;;5003822;28;19922;-80
2023/03/13 12:37:27;;;;;;;;;;;;;;;;;;5005323;28;19932;-80
2023/03/13 12:40:14;;;;;;;;;;;;;;;;;;5003496;28;19925;-80
2023/03/13 12:43:00;;;;;;;;;;;;;;;;;;5005931;28;19956;-80
2023/03/13 12:45:47;;;;;;;;;;;;;;;;;;5002533;28;20000;-80
2023/03/13 12:48:33;;;;;;;;;;;;;;;;;;5003145;28;19925;-79
2023/03/13 12:51:21;;;;;;;;;;;;;;;;;;5004180;28;19928;-79
2023/03/13 12:54:07;;;;;;;;;;;;;;;;;;5003381;28;19925;-79
2023/03/13 12:56:54;;;;;;;;;;;;;;;;;;5004486;28;19921;-81
2023/03/13 12:59:40;;;;;;;;;;;;;;;;;;5002800;28;19944;-80
2023/03/13 13:02:27;;;;;;;;;;;;;;;;;;5004673;28;19937;-80
2023/03/13 13:05:13;;;;;;;;;;;;;;;;;;5002454;28;19952;-80
2023/03/13 13:07:59;;;;;;;;;;;;;;;;;;5003911;28;19933;-80
2023/03/13 13:10:46;;;;;;;;;;;;;;;;;;5001515;28;19921;-81
2023/03/13 13:13:33;;;;;;;;;;;;;;;;;;5003253;28;20361;-78
2023/03/13 13:16:19;;;;;;;;;;;;;;;;;;5000984;28;19920;-78
2023/03/13 13:19:06;;;;;;;;;;;;;;;;;;5002624;28;19918;-78
2023/03/13 13:21:52;;;;;;;;;;;;;;;;;;5000459;28;20716;-78
2023/03/13 13:24:38;;;;;;;;;;;;;;;;;;5002894;28;19925;-78
2023/03/13 13:27:25;;;;;;;;;;;;;;;;;;5000774;28;19917;-78
2023/03/13 13:30:11;;;;;;;;;;;;;;;;;;5003233;28;19932;-77
2023/03/13 13:32:58;;;;;;;;;;;;;;;;;;5000865;28;19928;-78
2023/03/13 13:35:45;;;;;;;;;;;;;;;;;;5003182;28;19945;-78
2023/03/13 13:38:35;;;;;;;;;;;;;;;;;;5002368;28;19924;-78
2023/03/13 13:41:22;;;;;;;;;;;;;;;;;;5003243;28;19947;-78
2023/03/13 13:44:08;;;;;;;;;;;;;;;;;;5001227;28;20281;-77
2023/03/13 13:46:55;;;;;;;;;;;;;;;;;;5002348;28;19955;-78
2023/03/13 13:49:41;;;;;;;;;;;;;;;;;;5001906;28;19925;-78
2023/03/13 13:52:28;;;;;;;;;;;;;;;;;;5000347;28;19940;-78
2023/03/13 13:55:14;;;;;;;;;;;;;;;;;;5002461;28;19921;-77
2023/03/13 13:58:03;;;;;;;;;;;;;;;;;;5001972;28;19926;-77
2023/03/13 14:00:49;;;;;;;;;;;;;;;;;;5005658;28;19948;-77
2023/03/13 14:03:40;;;;;;;;;;;;;;;;;;5003777;28;19925;-77
2023/03/13 14:06:28;;;;;;;;;;;;;;;;;;5004407;28;19968;-78
2023/03/13 14:09:15;;;;;;;;;;;;;;;;;;5000838;28;19926;-77
2023/03/13 14:12:01;;;;;;;;;;;;;;;;;;5003419;28;19925;-78
2023/03/13 14:14:48;;;;;;;;;;;;;;;;;;5001266;28;19928;-79
2023/03/13 14:17:34;;;;;;;;;;;;;;;;;;5002500;28;19919;-78
2023/03/13 14:20:21;;;;;;;;;;;;;;;;;;5002542;28;19928;-78
2023/03/13 14:23:07;;;;;;;;;;;;;;;;;;5002586;28;19918;-78
2023/03/13 14:25:54;;;;;;;;;;;;;;;;;;5003026;28;19922;-79
2023/03/13 14:28:41;;;;;;;;;;;;;;;;;;5000824;28;19925;-79
2023/03/13 14:31:27;;;;;;;;;;;;;;;;;;5006066;28;19925;-79
2023/03/13 14:34:14;;;;;;;;;;;;;;;;;;5009638;28;19925;-78
2023/03/13 14:37:00;;;;;;;;;;;;;;;;;;5009187;28;19926;-79
2023/03/13 14:39:47;;;;;;;;;;;;;;;;;;5007834;28;19929;-79
2023/03/13 14:42:34;;;;;;;;;;;;;;;;;;5009156;28;19922;-79
2023/03/13 14:45:20;;;;;;;;;;;;;;;;;;5007730;28;19948;-79
2023/03/13 14:48:07;;;;;;;;;;;;;;;;;;5005423;28;19932;-76
2023/03/13 14:50:54;;;;;;;;;;;;;;;;;;5010246;28;19964;-78
2023/03/13 14:53:40;;;;;;;;;;;;;;;;;;5009255;28;19913;-78
2023/03/13 14:56:27;;;;;;;;;;;;;;;;;;5007499;28;21275;-79
2023/03/13 14:59:13;;;;;;;;;;;;;;;;;;5007478;28;20339;-78
2023/03/13 15:02:00;;;;;;;;;;;;;;;;;;5006403;28;19949;-79
2023/03/13 15:04:46;;;;;;;;;;;;;;;;;;5007797;28;19937;-78
2023/03/13 15:07:33;;;;;;;;;;;;;;;;;;5009581;28;19918;-79
2023/03/13 15:10:19;;;;;;;;;;;;;;;;;;5005197;28;19944;-79
2023/03/13 15:13:06;;;;;;;;;;;;;;;;;;5007303;28;20403;-79
2023/03/13 15:15:52;;;;;;;;;;;;;;;;;;5009496;28;19924;-79
2023/03/13 15:18:39;;;;;;;;;;;;;;;;;;5008588;28;20301;-79
2023/03/13 15:21:25;;;;;;;;;;;;;;;;;;5008163;28;19922;-79
2023/03/13 15:24:11;;;;;;;;;;;;;;;;;;5007347;28;19940;-76
2023/03/13 15:26:58;;;;;;;;;;;;;;;;;;5008838;28;20290;-79
2023/03/13 15:29:44;;;;;;;;;;;;;;;;;;5008233;28;19929;-79
2023/03/13 15:32:31;;;;;;;;;;;;;;;;;;5008010;28;19922;-79
2023/03/13 15:35:17;;;;;;;;;;;;;;;;;;5008724;28;20431;-78
2023/03/13 15:38:04;;;;;;;;;;;;;;;;;;5007785;28;19917;-78
2023/03/13 15:40:50;;;;;;;;;;;;;;;;;;5001179;28;19998;-78
2023/03/13 15:43:37;;;;;;;;;;;;;;;;;;5003137;28;19928;-78
2023/03/13 15:46:23;;;;;;;;;;;;;;;;;;5007627;28;19914;-77
2023/03/13 15:49:11;;;;;;;;;;;;;;;;;;5006965;28;19928;-77
2023/03/13 15:51:58;;;;;;;;;;;;;;;;;;5006623;28;19924;-78
2023/03/13 15:54:44;;;;;;;;;;;;;;;;;;5004269;28;19922;-78
2023/03/13 15:57:31;;;;;;;;;;;;;;;;;;5004963;28;20451;-77
2023/03/13 16:00:18;;;;;;;;;;;;;;;;;;5004142;28;20367;-81
2023/03/13 16:03:04;;;;;;;;;;;;;;;;;;5006624;28;19929;-82
2023/03/13 16:05:51;;;;;;;;;;;;;;;;;;5002811;28;19932;-81
2023/03/13 16:08:37;;;;;;;;;;;;;;;;;;5002579;28;19948;-80
2023/03/13 16:11:24;;;;;;;;;;;;;;;;;;5003552;28;19928;-80
2023/03/13 16:14:10;;;;;;;;;;;;;;;;;;5004068;28;19924;-81
2023/03/13 16:16:57;;;;;;;;;;;;;;;;;;5006059;28;19918;-81
2023/03/13 16:19:43;;;;;;;;;;;;;;;;;;5003272;28;19913;-80
2023/03/13 16:22:30;;;;;;;;;;;;;;;;;;4998455;28;19917;-80
2023/03/13 16:25:16;;;;;;;;;;;;;;;;;;5004476;28;19924;-80
2023/03/13 16:28:03;;;;;;;;;;;;;;;;;;5007026;28;19917;-80
2023/03/13 16:30:49;;;;;;;;;;;;;;;;;;5003830;28;19943;-81
2023/03/13 16:33:36;;;;;;;;;;;;;;;;;;4995152;28;19924;-80
2023/03/13 16:36:23;;;;;;;;;;;;;;;;;;4998405;28;19917;-80
2023/03/13 16:39:09;;;;;;;;;;;;;;;;;;5005918;28;19921;-80
2023/03/13 16:41:56;;;;;;;;;;;;;;;;;;5002578;28;19932;-80
2023/03/13 16:44:42;;;;;;;;;;;;;;;;;;5004760;28;19921;-81
2023/03/13 16:47:29;;;;;;;;;;;;;;;;;;4998678;28;19926;-81
2023/03/13 16:50:17;;;;;;;;;;;;;;;;;;5005659;28;20340;-80
2023/03/13 16:53:03;;;;;;;;;;;;;;;;;;5000820;28;19948;-80
2023/03/13 16:55:50;;;;;;;;;;;;;;;;;;5006441;28;19923;-81
2023/03/13 16:58:36;;;;;;;;;;;;;;;;;;5005585;28;19917;-80
2023/03/13 17:01:24;;;;;;;;;;;;;;;;;;5005203;28;20381;-80
2023/03/13 17:04:11;;;;;;;;;;;;;;;;;;5001610;28;19945;-80
2023/03/13 17:06:57;;;;;;;;;;;;;;;;;;5017868;28;19929;-80
2023/03/13 17:09:44;;;;;;;;;;;;;;;;;;5002043;28;19934;-83
2023/03/13 17:12:30;;;;;;;;;;;;;;;;;;5002402;28;19918;-79
2023/03/13 17:15:17;;;;;;;;;;;;;;;;;;5003955;28;20590;-79
2023/03/13 17:18:03;;;;;;;;;;;;;;;;;;5002995;28;19917;-80
2023/03/13 17:20:50;;;;;;;;;;;;;;;;;;5002357;28;19928;-80
2023/03/13 17:23:36;;;;;;;;;;;;;;;;;;5012611;28;19924;-80
2023/03/13 17:26:23;;;;;;;;;;;;;;;;;;4993838;28;19925;-79
2023/03/13 17:29:09;;;;;;;;;;;;;;;;;;5004967;28;19933;-80
2023/03/13 17:31:56;;;;;;;;;;;;;;;;;;5007895;28;20399;-81
2023/03/13 17:34:42;;;;;;;;;;;;;;;;;;4996348;28;19918;-81
2023/03/13 17:37:29;;;;;;;;;;;;;;;;;;4994563;28;19917;-81
2023/03/13 17:40:15;;;;;;;;;;;;;;;;;;5004101;28;20327;-79
2023/03/13 17:43:02;;;;;;;;;;;;;;;;;;5002477;28;19932;-79
2023/03/13 17:45:48;;;;;;;;;;;;;;;;;;4999331;28;19918;-81
2023/03/13 17:48:35;;;;;;;;;;;;;;;;;;5002136;28;19960;-78
2023/03/13 17:51:21;;;;;;;;;;;;;;;;;;4999271;28;19925;-81
2023/03/13 17:54:07;;;;;;;;;;;;;;;;;;5001491;28;19924;-78
2023/03/13 17:56:55;;;;;;;;;;;;;;;;;;4994324;28;19924;-80
2023/03/13 17:59:41;;;;;;;;;;;;;;;;;;4997548;28;19917;-79
2023/03/13 18:02:28;;;;;;;;;;;;;;;;;;5002127;28;19934;-81
2023/03/13 18:05:14;;;;;;;;;;;;;;;;;;5001068;28;19921;-79
2023/03/13 18:08:01;;;;;;;;;;;;;;;;;;5001261;28;20314;-80
2023/03/13 18:10:47;;;;;;;;;;;;;;;;;;5001906;28;19925;-80
2023/03/13 18:13:34;;;;;;;;;;;;;;;;;;4999638;28;19918;-81
2023/03/13 18:16:20;;;;;;;;;;;;;;;;;;5002648;28;19918;-80
2023/03/13 18:19:07;;;;;;;;;;;;;;;;;;5003918;28;20296;-81
2023/03/13 18:21:53;;;;;;;;;;;;;;;;;;5002373;28;20349;-79
2023/03/13 18:24:40;;;;;;;;;;;;;;;;;;4999916;28;19921;-79
2023/03/13 18:27:26;;;;;;;;;;;;;;;;;;5002300;28;19921;-79
2023/03/13 18:30:13;;;;;;;;;;;;;;;;;;5003575;28;19926;-79
2023/03/13 18:32:59;;;;;;;;;;;;;;;;;;5003984;28;19921;-78
2023/03/13 18:35:46;;;;;;;;;;;;;;;;;;5001731;28;19914;-79
2023/03/13 18:38:32;;;;;;;;;;;;;;;;;;4989609;28;20569;-79
2023/03/13 18:41:19;;;;;;;;;;;;;;;;;;4992219;28;19921;-80
2023/03/13 18:44:05;;;;;;;;;;;;;;;;;;5004599;28;19917;-79
2023/03/13 18:46:52;;;;;;;;;;;;;;;;;;5002625;28;20369;-77
2023/03/13 18:49:38;;;;;;;;;;;;;;;;;;4994702;28;19931;-79
2023/03/13 18:52:25;;;;;;;;;;;;;;;;;;4999644;28;19922;-79
2023/03/13 18:55:11;;;;;;;;;;;;;;;;;;5000807;28;19928;-80
2023/03/13 18:57:58;;;;;;;;;;;;;;;;;;4984646;28;20420;-80